Time;durP1;ratioP1;P1;durP2;ratioP2;P2;SDS_P1;SDS_P2;PMS_P1;PMS_P2;Temp;Humidity;BMP_temperature;BMP_pressure;BME280_temperature;BME280_humidity;BME280_pressure;Samples;Min_cycle;Max_cycle;Signal;HPM_P1;HPM_P2
2022/07/26 00:01:01;;;;;;;;;;;27.10;87.30;;;;;;5076037;28;19908;-68
2022/07/26 00:03:26;;;;;;;;;;;27.10;87.30;;;;;;5075930;28;19916;-68
2022/07/26 00:05:52;;;;;;;;;;;27.00;87.30;;;;;;5058076;28;19959;-68
2022/07/26 00:08:17;;;;;;;;;;;27.00;87.30;;;;;;5075608;28;19912;-68
2022/07/26 00:10:44;;;;;;;;;;;27.00;87.30;;;;;;5075536;28;20248;-67
2022/07/26 00:13:10;;;;;;;;;;;27.00;87.30;;;;;;5075777;28;20382;-67
2022/07/26 00:15:36;;;;;;;;;;;27.00;87.20;;;;;;5075860;28;19908;-67
2022/07/26 00:18:02;;;;;;;;;;;27.00;87.30;;;;;;5075768;28;19935;-68
2022/07/26 00:20:28;;;;;;;;;;;27.00;87.30;;;;;;5057645;28;19912;-68
2022/07/26 00:22:54;;;;;;;;;;;27.00;87.30;;;;;;5057645;28;19915;-68
2022/07/26 00:25:19;;;;;;;;;;;27.00;87.30;;;;;;5075323;28;19944;-68
2022/07/26 00:27:45;;;;;;;;;;;27.10;87.40;;;;;;5074442;28;20381;-68
2022/07/26 00:30:11;;;;;;;;;;;27.00;87.30;;;;;;5075430;28;19912;-67
2022/07/26 00:32:36;;;;;;;;;;;27.00;87.40;;;;;;5075308;28;20536;-67
2022/07/26 00:35:02;;;;;;;;;;;27.10;87.40;;;;;;5057328;28;19915;-68
2022/07/26 00:37:28;;;;;;;;;;;27.00;87.40;;;;;;5075189;28;19912;-68
2022/07/26 00:39:53;;;;;;;;;;;27.00;87.40;;;;;;5057610;28;19935;-68
2022/07/26 00:42:19;;;;;;;;;;;27.00;87.40;;;;;;5075187;28;19919;-68
2022/07/26 00:44:44;;;;;;;;;;;27.00;87.40;;;;;;5074861;28;20283;-67
2022/07/26 00:47:10;;;;;;;;;;;27.00;87.40;;;;;;5075021;28;19916;-67
2022/07/26 00:49:35;;;;;;;;;;;27.00;87.40;;;;;;5074704;28;19953;-68
2022/07/26 00:52:02;;;;;;;;;;;27.00;87.40;;;;;;5074970;28;19916;-68
2022/07/26 00:54:27;;;;;;;;;;;27.00;87.40;;;;;;5057004;28;19909;-68
2022/07/26 00:56:53;;;;;;;;;;;27.00;87.40;;;;;;5074688;28;19915;-68
2022/07/26 00:59:18;;;;;;;;;;;27.00;87.40;;;;;;5074292;28;20303;-68
2022/07/26 01:01:44;;;;;;;;;;;27.00;87.40;;;;;;5056852;28;19908;-68
2022/07/26 01:04:09;;;;;;;;;;;27.00;87.40;;;;;;5074703;28;19954;-68
2022/07/26 01:06:35;;;;;;;;;;;27.00;87.50;;;;;;5074607;28;19970;-68
2022/07/26 01:09:02;;;;;;;;;;;27.00;87.50;;;;;;5075020;28;19916;-68
2022/07/26 01:11:27;;;;;;;;;;;27.00;87.50;;;;;;5056723;28;19948;-68
2022/07/26 01:13:52;;;;;;;;;;;27.00;87.50;;;;;;5074656;28;19908;-68
2022/07/26 01:16:18;;;;;;;;;;;27.00;87.50;;;;;;5074334;28;19913;-68
2022/07/26 01:18:44;;;;;;;;;;;27.00;87.50;;;;;;5074361;28;20010;-68
2022/07/26 01:21:09;;;;;;;;;;;27.00;87.50;;;;;;5074366;28;19967;-68
2022/07/26 01:23:35;;;;;;;;;;;27.00;87.60;;;;;;5074080;28;20270;-68
2022/07/26 01:26:01;;;;;;;;;;;27.00;87.60;;;;;;5056382;28;19908;-68
2022/07/26 01:28:27;;;;;;;;;;;27.00;87.60;;;;;;5074317;28;19915;-68
2022/07/26 01:30:52;;;;;;;;;;;27.00;87.60;;;;;;5074352;28;19912;-68
2022/07/26 01:33:18;;;;;;;;;;;27.00;87.60;;;;;;5056325;28;19908;-68
2022/07/26 01:35:43;;;;;;;;;;;27.00;87.60;;;;;;5074321;28;19913;-68
2022/07/26 01:38:08;;;;;;;;;;;27.00;87.60;;;;;;5073683;28;19920;-68
2022/07/26 01:40:34;;;;;;;;;;;27.00;87.60;;;;;;5074002;28;20334;-68
2022/07/26 01:42:59;;;;;;;;;;;27.00;87.60;;;;;;5074170;28;19908;-68
2022/07/26 01:45:25;;;;;;;;;;;27.00;87.60;;;;;;5074249;28;19909;-68
2022/07/26 01:47:50;;;;;;;;;;;27.00;87.60;;;;;;5074094;28;19908;-68
2022/07/26 01:50:16;;;;;;;;;;;27.00;87.60;;;;;;5074094;28;19951;-68
2022/07/26 01:52:42;;;;;;;;;;;27.00;87.60;;;;;;5073875;28;19916;-67
2022/07/26 01:55:08;;;;;;;;;;;27.00;87.60;;;;;;5073795;28;20390;-68
2022/07/26 01:57:33;;;;;;;;;;;27.00;87.60;;;;;;5073705;28;19919;-68
2022/07/26 01:59:59;;;;;;;;;;;27.00;87.60;;;;;;5055957;28;20003;-68
2022/07/26 02:02:40;;;;;;;;;;;27.00;87.60;;;;;;5073768;28;20844;-68
2022/07/26 02:05:06;;;;;;;;;;;27.00;87.60;;;;;;5073936;28;19915;-68
2022/07/26 02:07:36;;;;;;;;;;;27.00;87.60;;;;;;5073975;28;20003;-67
2022/07/26 02:10:02;;;;;;;;;;;27.00;87.60;;;;;;5074072;28;19916;-68
2022/07/26 02:12:27;;;;;;;;;;;27.00;87.60;;;;;;5073713;28;19909;-68
2022/07/26 02:14:53;;;;;;;;;;;27.00;87.60;;;;;;5073973;28;20003;-68
2022/07/26 02:17:18;;;;;;;;;;;27.00;87.60;;;;;;5073878;28;19912;-68
2022/07/26 02:19:44;;;;;;;;;;;27.00;87.60;;;;;;5073580;28;20323;-68
2022/07/26 02:22:10;;;;;;;;;;;27.00;87.60;;;;;;5073908;28;20012;-68
2022/07/26 02:24:36;;;;;;;;;;;27.00;87.60;;;;;;5073568;28;19908;-68
2022/07/26 02:27:02;;;;;;;;;;;27.00;87.60;;;;;;5055877;28;20321;-68
2022/07/26 02:29:27;;;;;;;;;;;27.00;87.60;;;;;;5073742;28;19962;-68
2022/07/26 02:31:55;;;;;;;;;;;27.00;87.60;;;;;;5073451;28;19913;-68
2022/07/26 02:34:20;;;;;;;;;;;27.00;87.60;;;;;;5055740;28;19908;-67
2022/07/26 02:36:46;;;;;;;;;;;27.00;87.60;;;;;;5073312;28;20020;-68
2022/07/26 02:39:12;;;;;;;;;;;27.00;87.60;;;;;;5073508;28;19916;-66
2022/07/26 02:41:37;;;;;;;;;;;27.00;87.60;;;;;;5073694;28;19909;-68
2022/07/26 02:44:04;;;;;;;;;;;27.00;87.60;;;;;;5073652;28;20006;-68
2022/07/26 02:46:30;;;;;;;;;;;27.00;87.60;;;;;;5073581;28;19909;-68
2022/07/26 02:48:56;;;;;;;;;;;27.00;87.60;;;;;;5073579;28;20386;-68
2022/07/26 02:51:21;;;;;;;;;;;27.00;87.60;;;;;;5076632;28;19962;-68
2022/07/26 02:53:46;;;;;;;;;;;27.00;87.60;;;;;;5077124;28;19912;-68
2022/07/26 02:56:12;;;;;;;;;;;27.00;87.60;;;;;;5076950;28;19961;-67
2022/07/26 02:58:38;;;;;;;;;;;27.00;87.60;;;;;;5076676;28;20406;-68
2022/07/26 03:01:03;;;;;;;;;;;27.00;87.60;;;;;;5076898;28;20025;-68
2022/07/26 03:03:29;;;;;;;;;;;27.00;87.70;;;;;;5077099;28;19919;-68
2022/07/26 03:05:54;;;;;;;;;;;27.00;87.70;;;;;;5076595;28;19908;-68
2022/07/26 03:08:20;;;;;;;;;;;27.00;87.60;;;;;;5076952;28;19908;-68
2022/07/26 03:10:45;;;;;;;;;;;27.00;87.60;;;;;;5059119;28;19915;-68
2022/07/26 03:13:11;;;;;;;;;;;27.00;87.60;;;;;;5076661;28;19931;-68
2022/07/26 03:15:36;;;;;;;;;;;27.00;87.70;;;;;;5076771;28;19915;-68
2022/07/26 03:18:02;;;;;;;;;;;27.00;87.70;;;;;;5076774;28;19954;-68
2022/07/26 03:20:28;;;;;;;;;;;27.00;87.70;;;;;;5076764;28;19999;-68
2022/07/26 03:22:53;;;;;;;;;;;27.00;87.70;;;;;;5076717;28;20315;-68
2022/07/26 03:25:18;;;;;;;;;;;27.00;87.70;;;;;;5076637;28;19912;-68
2022/07/26 03:27:44;;;;;;;;;;;27.00;87.70;;;;;;5076352;28;20011;-68
2022/07/26 03:30:10;;;;;;;;;;;27.00;87.70;;;;;;5076909;28;19908;-68
2022/07/26 03:32:35;;;;;;;;;;;27.00;87.70;;;;;;5076307;28;19909;-68
2022/07/26 03:35:01;;;;;;;;;;;27.00;87.70;;;;;;5075967;28;19909;-68
2022/07/26 03:37:26;;;;;;;;;;;27.00;87.60;;;;;;5076272;28;19924;-68
2022/07/26 03:39:52;;;;;;;;;;;27.00;87.70;;;;;;5076389;28;19912;-68
2022/07/26 03:42:17;;;;;;;;;;;27.00;87.60;;;;;;5076308;28;19915;-67
2022/07/26 03:44:43;;;;;;;;;;;27.00;87.60;;;;;;5058294;28;20405;-66
2022/07/26 03:47:08;;;;;;;;;;;27.00;87.60;;;;;;5076159;28;19912;-68
2022/07/26 03:49:34;;;;;;;;;;;27.00;87.60;;;;;;5076322;28;19912;-68
2022/07/26 03:51:59;;;;;;;;;;;27.00;87.70;;;;;;5075829;28;20252;-68
2022/07/26 03:54:25;;;;;;;;;;;27.00;87.60;;;;;;5076022;28;20050;-68
2022/07/26 03:56:50;;;;;;;;;;;27.10;87.70;;;;;;5075959;28;20366;-68
2022/07/26 03:59:17;;;;;;;;;;;27.00;87.60;;;;;;5075565;28;19920;-68
2022/07/26 04:01:43;;;;;;;;;;;27.00;87.60;;;;;;5075729;28;19913;-68
2022/07/26 04:04:13;;;;;;;;;;;27.00;87.70;;;;;;5075912;28;19995;-68
2022/07/26 04:06:39;;;;;;;;;;;27.00;87.60;;;;;;5075967;28;19947;-68
2022/07/26 04:09:06;;;;;;;;;;;27.00;87.60;;;;;;5075755;28;20355;-68
2022/07/26 04:11:32;;;;;;;;;;;27.00;87.70;;;;;;5075515;28;19962;-68
2022/07/26 04:13:57;;;;;;;;;;;27.00;87.70;;;;;;5057719;28;20290;-68
2022/07/26 04:16:23;;;;;;;;;;;27.00;87.70;;;;;;5075991;28;19931;-68
2022/07/26 04:18:48;;;;;;;;;;;27.00;87.70;;;;;;5075547;28;19990;-68
2022/07/26 04:21:14;;;;;;;;;;;27.00;87.70;;;;;;5057570;28;19912;-67
2022/07/26 04:23:39;;;;;;;;;;;27.00;87.70;;;;;;5057233;28;19952;-68
2022/07/26 04:26:05;;;;;;;;;;;27.00;87.70;;;;;;5057376;28;19952;-68
2022/07/26 04:28:31;;;;;;;;;;;27.00;87.70;;;;;;5075131;28;19908;-68
2022/07/26 04:30:57;;;;;;;;;;;27.00;87.70;;;;;;5057558;28;19913;-68
2022/07/26 04:33:24;;;;;;;;;;;27.00;87.70;;;;;;5057314;28;19966;-68
2022/07/26 04:35:49;;;;;;;;;;;27.00;87.70;;;;;;5075160;28;19912;-68
2022/07/26 04:38:14;;;;;;;;;;;27.00;87.70;;;;;;5074509;28;19920;-68
2022/07/26 04:40:40;;;;;;;;;;;27.00;87.70;;;;;;5075070;28;19920;-69
2022/07/26 04:43:05;;;;;;;;;;;27.00;87.70;;;;;;5056889;28;19946;-68
2022/07/26 04:45:31;;;;;;;;;;;27.00;87.70;;;;;;5074580;28;19924;-68
2022/07/26 04:47:57;;;;;;;;;;;27.00;87.70;;;;;;5074868;28;19908;-68
2022/07/26 04:50:22;;;;;;;;;;;27.00;87.70;;;;;;5056816;28;19909;-68
2022/07/26 04:52:49;;;;;;;;;;;27.00;87.80;;;;;;5074432;28;20315;-68
2022/07/26 04:55:14;;;;;;;;;;;27.00;87.70;;;;;;5074664;28;20312;-67
2022/07/26 04:57:40;;;;;;;;;;;27.00;87.70;;;;;;5056614;28;19942;-68
2022/07/26 05:00:07;;;;;;;;;;;27.00;88.30;;;;;;5074463;28;20279;-68
2022/07/26 05:02:33;;;;;;;;;;;27.00;87.70;;;;;;5074821;28;19909;-68
2022/07/26 05:04:58;;;;;;;;;;;27.00;87.70;;;;;;5056516;28;19977;-67
2022/07/26 05:07:24;;;;;;;;;;;27.00;87.70;;;;;;5074742;28;19915;-67
2022/07/26 05:09:49;;;;;;;;;;;27.00;87.70;;;;;;5074280;28;20349;-67
2022/07/26 05:12:15;;;;;;;;;;;27.00;87.70;;;;;;5073956;28;19985;-67
2022/07/26 05:14:40;;;;;;;;;;;27.00;88.30;;;;;;5074269;28;20260;-68
2022/07/26 05:17:06;;;;;;;;;;;27.00;87.70;;;;;;5073999;28;19983;-68
2022/07/26 05:19:32;;;;;;;;;;;27.00;87.70;;;;;;5073998;28;20279;-68
2022/07/26 05:21:57;;;;;;;;;;;27.00;87.70;;;;;;5074123;28;19961;-68
2022/07/26 05:24:23;;;;;;;;;;;27.00;87.70;;;;;;5056082;28;20326;-67
2022/07/26 05:26:48;;;;;;;;;;;27.00;87.70;;;;;;5073672;28;20399;-67
2022/07/26 05:29:14;;;;;;;;;;;27.10;87.80;;;;;;5073746;28;19916;-68
2022/07/26 05:31:39;;;;;;;;;;;27.00;87.70;;;;;;5073884;28;19909;-69
2022/07/26 05:34:05;;;;;;;;;;;27.00;87.70;;;;;;5073880;28;20259;-69
2022/07/26 05:36:30;;;;;;;;;;;27.00;87.70;;;;;;5074428;28;19916;-68
2022/07/26 05:38:56;;;;;;;;;;;27.00;87.70;;;;;;5073790;28;19924;-68
2022/07/26 05:41:21;;;;;;;;;;;27.00;87.70;;;;;;5073450;28;19916;-68
2022/07/26 05:43:47;;;;;;;;;;;27.00;87.80;;;;;;5073822;28;19951;-68
2022/07/26 05:46:14;;;;;;;;;;;27.00;87.70;;;;;;5073747;28;19916;-68
2022/07/26 05:48:40;;;;;;;;;;;27.00;87.70;;;;;;5055718;28;19913;-68
2022/07/26 05:51:06;;;;;;;;;;;27.00;87.80;;;;;;5073615;28;19917;-68
2022/07/26 05:53:31;;;;;;;;;;;27.00;87.80;;;;;;5055817;28;20348;-68
2022/07/26 05:55:57;;;;;;;;;;;27.00;87.80;;;;;;5055433;28;19909;-68
2022/07/26 05:58:22;;;;;;;;;;;27.00;87.80;;;;;;5073968;28;19927;-67
2022/07/26 06:00:48;;;;;;;;;;;27.00;87.80;;;;;;5073594;28;19960;-68
2022/07/26 06:03:22;;;;;;;;;;;27.00;87.80;;;;;;5073698;28;19908;-68
2022/07/26 06:05:48;;;;;;;;;;;27.00;87.80;;;;;;5073410;28;20385;-68
2022/07/26 06:08:14;;;;;;;;;;;27.00;87.80;;;;;;5073453;28;19915;-68
2022/07/26 06:10:39;;;;;;;;;;;27.00;87.90;;;;;;5055404;28;19908;-68
2022/07/26 06:13:05;;;;;;;;;;;27.00;87.90;;;;;;5073479;28;19943;-68
2022/07/26 06:15:30;;;;;;;;;;;27.00;87.80;;;;;;5072967;28;19949;-68
2022/07/26 06:17:56;;;;;;;;;;;27.10;88.40;;;;;;5073049;28;20058;-68
2022/07/26 06:20:21;;;;;;;;;;;27.10;87.80;;;;;;5073097;28;19908;-68
2022/07/26 06:22:47;;;;;;;;;;;27.00;87.70;;;;;;5072906;28;20461;-67
2022/07/26 06:25:12;;;;;;;;;;;27.00;87.70;;;;;;5074484;28;20008;-68
2022/07/26 06:27:38;;;;;;;;;;;27.00;87.80;;;;;;5077120;28;19975;-69
2022/07/26 06:30:04;;;;;;;;;;;27.00;87.80;;;;;;5077119;28;19958;-68
2022/07/26 06:32:29;;;;;;;;;;;27.10;87.80;;;;;;5076664;28;20425;-69
2022/07/26 06:34:55;;;;;;;;;;;27.10;87.80;;;;;;5058995;28;19908;-68
2022/07/26 06:37:20;;;;;;;;;;;27.00;87.70;;;;;;5076926;28;20413;-68
2022/07/26 06:39:46;;;;;;;;;;;27.00;87.70;;;;;;5076852;28;19954;-69
2022/07/26 06:42:11;;;;;;;;;;;27.00;87.70;;;;;;5076816;28;19916;-68
2022/07/26 06:44:37;;;;;;;;;;;27.10;87.80;;;;;;5077052;28;19908;-68
2022/07/26 06:47:02;;;;;;;;;;;27.00;87.80;;;;;;5076842;28;19914;-68
2022/07/26 06:49:28;;;;;;;;;;;27.10;87.80;;;;;;5076854;28;19909;-68
2022/07/26 06:51:56;;;;;;;;;;;27.00;87.70;;;;;;5059221;28;20263;-68
2022/07/26 06:54:21;;;;;;;;;;;27.00;87.80;;;;;;5076708;28;20359;-68
2022/07/26 06:56:47;;;;;;;;;;;27.00;87.80;;;;;;5058716;28;19909;-67
2022/07/26 06:59:12;;;;;;;;;;;27.00;87.80;;;;;;5076446;28;19920;-68
2022/07/26 07:01:38;;;;;;;;;;;27.00;87.80;;;;;;5076359;28;19908;-68
2022/07/26 07:04:04;;;;;;;;;;;27.00;87.80;;;;;;5076270;28;19909;-68
2022/07/26 07:06:29;;;;;;;;;;;27.00;87.90;;;;;;5058741;28;20283;-68
2022/07/26 07:08:54;;;;;;;;;;;27.00;87.90;;;;;;5076472;28;20263;-68
2022/07/26 07:11:20;;;;;;;;;;;27.00;87.90;;;;;;5058604;28;19908;-68
2022/07/26 07:13:45;;;;;;;;;;;27.00;87.90;;;;;;5076542;28;19915;-68
2022/07/26 07:16:11;;;;;;;;;;;27.00;87.90;;;;;;5076299;28;19908;-68
2022/07/26 07:18:36;;;;;;;;;;;27.00;87.90;;;;;;5076139;28;19912;-69
2022/07/26 07:21:02;;;;;;;;;;;27.00;87.90;;;;;;5076068;28;19919;-68
2022/07/26 07:23:27;;;;;;;;;;;27.00;87.90;;;;;;5076675;28;19960;-68
2022/07/26 07:25:53;;;;;;;;;;;27.00;88.00;;;;;;5058437;28;20348;-67
2022/07/26 07:28:18;;;;;;;;;;;27.00;88.00;;;;;;5075949;28;19912;-66
2022/07/26 07:30:44;;;;;;;;;;;27.00;88.00;;;;;;5076153;28;19909;-68
2022/07/26 07:33:12;;;;;;;;;;;27.00;88.00;;;;;;5058299;28;20021;-68
2022/07/26 07:35:39;;;;;;;;;;;27.00;88.10;;;;;;5075804;28;19909;-67
2022/07/26 07:38:04;;;;;;;;;;;27.00;88.10;;;;;;5075814;28;19912;-67
2022/07/26 07:40:30;;;;;;;;;;;27.00;88.00;;;;;;5076187;28;20025;-67
2022/07/26 07:42:56;;;;;;;;;;;26.90;88.00;;;;;;5075879;28;19908;-68
2022/07/26 07:45:21;;;;;;;;;;;27.00;88.10;;;;;;5075623;28;19909;-67
2022/07/26 07:47:47;;;;;;;;;;;27.00;88.10;;;;;;5076228;28;19908;-67
2022/07/26 07:50:12;;;;;;;;;;;27.00;88.10;;;;;;5075842;28;19915;-67
2022/07/26 07:52:38;;;;;;;;;;;27.00;88.20;;;;;;5075813;28;20255;-67
2022/07/26 07:55:03;;;;;;;;;;;27.00;88.20;;;;;;5075502;28;19916;-67
2022/07/26 07:57:29;;;;;;;;;;;27.00;88.10;;;;;;5075824;28;19919;-67
2022/07/26 07:59:54;;;;;;;;;;;27.00;88.10;;;;;;5075380;28;19953;-67
2022/07/26 08:02:20;;;;;;;;;;;27.00;88.10;;;;;;5057685;28;19908;-67
2022/07/26 08:04:45;;;;;;;;;;;27.00;88.10;;;;;;5075578;28;19908;-70
2022/07/26 08:07:11;;;;;;;;;;;27.00;88.10;;;;;;5075649;28;19909;-69
2022/07/26 08:09:36;;;;;;;;;;;27.00;88.10;;;;;;5075682;28;19932;-66
2022/07/26 08:12:02;;;;;;;;;;;27.00;88.00;;;;;;5075517;28;19915;-69
2022/07/26 08:14:27;;;;;;;;;;;27.00;88.00;;;;;;5075440;28;19997;-67
2022/07/26 08:16:53;;;;;;;;;;;27.00;88.00;;;;;;5075430;28;20320;-69
2022/07/26 08:19:19;;;;;;;;;;;27.00;88.00;;;;;;5057514;28;19978;-66
2022/07/26 08:21:45;;;;;;;;;;;27.00;88.00;;;;;;5058332;28;19912;-67
2022/07/26 08:24:11;;;;;;;;;;;27.00;88.00;;;;;;5057846;28;19935;-67
2022/07/26 08:26:37;;;;;;;;;;;27.00;88.00;;;;;;5057151;28;20317;-68
2022/07/26 08:29:03;;;;;;;;;;;27.00;88.00;;;;;;5057509;28;19909;-67
2022/07/26 08:31:28;;;;;;;;;;;27.00;88.00;;;;;;5074975;28;19914;-67
2022/07/26 08:33:54;;;;;;;;;;;27.00;88.00;;;;;;5075343;28;19912;-67
2022/07/26 08:36:20;;;;;;;;;;;27.00;88.00;;;;;;5075332;28;20189;-67
2022/07/26 08:38:46;;;;;;;;;;;27.00;88.00;;;;;;5075032;28;19916;-67
2022/07/26 08:41:11;;;;;;;;;;;27.00;88.00;;;;;;5056838;28;19915;-68
2022/07/26 08:43:37;;;;;;;;;;;27.00;88.00;;;;;;5056823;28;19915;-67
2022/07/26 08:46:03;;;;;;;;;;;27.00;88.00;;;;;;5056794;28;19915;-67
2022/07/26 08:48:28;;;;;;;;;;;27.00;88.10;;;;;;5055861;28;20362;-67
2022/07/26 08:50:54;;;;;;;;;;;27.00;88.10;;;;;;5074342;28;20389;-67
2022/07/26 08:53:20;;;;;;;;;;;27.00;88.10;;;;;;5074378;28;19977;-67
2022/07/26 08:55:45;;;;;;;;;;;27.00;88.00;;;;;;5056532;28;19936;-67
2022/07/26 08:58:11;;;;;;;;;;;27.00;88.00;;;;;;5074324;28;20351;-68
2022/07/26 09:00:36;;;;;;;;;;;27.00;88.00;;;;;;5074699;28;19924;-67
2022/07/26 09:03:02;;;;;;;;;;;27.00;88.00;;;;;;5056322;28;20373;-68
2022/07/26 09:05:31;;;;;;;;;;;27.00;88.00;;;;;;5074347;28;19915;-67
2022/07/26 09:07:58;;;;;;;;;;;27.00;88.00;;;;;;5074467;28;19908;-66
2022/07/26 09:10:23;;;;;;;;;;;27.00;88.00;;;;;;5074498;28;19908;-69
2022/07/26 09:12:56;;;;;;;;;;;27.00;88.00;;;;;;5056375;28;19919;-66
2022/07/26 09:15:26;;;;;;;;;;;27.00;88.00;;;;;;5074292;28;19908;-66
2022/07/26 09:17:53;;;;;;;;;;;27.00;88.00;;;;;;5074195;28;20018;-66
2022/07/26 09:20:20;;;;;;;;;;;27.10;88.00;;;;;;5074030;28;19908;-67
2022/07/26 09:23:05;;;;;;;;;;;27.10;88.10;;;;;;5056049;28;20011;-68
2022/07/26 09:25:32;;;;;;;;;;;27.00;88.00;;;;;;5073541;28;19909;-67
2022/07/26 09:27:58;;;;;;;;;;;27.10;88.00;;;;;;5073821;28;19908;-66
2022/07/26 09:30:24;;;;;;;;;;;27.10;88.00;;;;;;5056167;28;20276;-66
2022/07/26 09:33:03;;;;;;;;;;;27.10;88.00;;;;;;5073598;28;19915;-66
2022/07/26 09:35:31;;;;;;;;;;;27.10;88.00;;;;;;5074001;28;20309;-66
2022/07/26 09:37:56;;;;;;;;;;;27.10;88.00;;;;;;5074024;28;20220;-66
2022/07/26 09:40:22;;;;;;;;;;;27.10;88.00;;;;;;5056351;28;19916;-66
2022/07/26 09:42:59;;;;;;;;;;;27.10;87.90;;;;;;5073965;28;19916;-65
2022/07/26 09:45:25;;;;;;;;;;;27.10;87.90;;;;;;5073966;28;19999;-67
2022/07/26 09:48:03;;;;;;;;;;;27.20;88.00;;;;;;5055549;28;19909;-65
2022/07/26 09:50:30;;;;;;;;;;;27.20;88.00;;;;;;5073687;28;19916;-67
2022/07/26 09:53:06;;;;;;;;;;;27.20;88.00;;;;;;5074132;28;19999;-66
2022/07/26 09:55:32;;;;;;;;;;;27.20;87.90;;;;;;5073548;28;19908;-66
2022/07/26 09:58:02;;;;;;;;;;;27.20;88.00;;;;;;5073529;28;20321;-66
2022/07/26 10:00:28;;;;;;;;;;;27.20;88.00;;;;;;5055480;28;19927;-64
2022/07/26 10:02:53;;;;;;;;;;;27.20;88.00;;;;;;5073672;28;19995;-65
2022/07/26 10:05:20;;;;;;;;;;;27.20;88.00;;;;;;5073856;28;19982;-65
2022/07/26 10:07:49;;;;;;;;;;;27.20;88.00;;;;;;5073563;28;19999;-66
2022/07/26 10:10:23;;;;;;;;;;;27.20;88.00;;;;;;5073647;28;19909;-67
2022/07/26 10:12:51;;;;;;;;;;;27.20;88.10;;;;;;5073510;28;19913;-66
2022/07/26 10:15:52;;;;;;;;;;;27.20;88.10;;;;;;5055490;28;19908;-68
2022/07/26 10:18:35;;;;;;;;;;;27.20;88.10;;;;;;5031235;28;19917;-67
2022/07/26 10:21:19;;;;;;;;;;;27.20;88.10;;;;;;5069969;28;19951;-68
2022/07/26 10:23:45;;;;;;;;;;;27.20;88.10;;;;;;5073213;28;20351;-67
2022/07/26 10:26:30;;;;;;;;;;;27.20;88.10;;;;;;5073113;28;19916;-68
2022/07/26 10:29:15;;;;;;;;;;;27.20;88.10;;;;;;5073317;28;19908;-68
2022/07/26 10:31:44;;;;;;;;;;;27.20;88.10;;;;;;5073198;28;19913;-68
2022/07/26 10:34:28;;;;;;;;;;;27.20;88.10;;;;;;5072942;28;19912;-66
2022/07/26 10:36:57;;;;;;;;;;;27.20;88.10;;;;;;5073219;28;20366;-66
2022/07/26 10:39:24;;;;;;;;;;;27.20;88.10;;;;;;5073330;28;19917;-67
2022/07/26 10:41:56;;;;;;;;;;;27.20;88.10;;;;;;5073423;28;19916;-69
2022/07/26 10:44:24;;;;;;;;;;;27.20;88.10;;;;;;5073440;28;19985;-66
2022/07/26 10:47:08;;;;;;;;;;;27.20;88.10;;;;;;5073335;28;19955;-68
2022/07/26 10:49:33;;;;;;;;;;;27.20;88.10;;;;;;5073442;28;19909;-68
2022/07/26 10:52:11;;;;;;;;;;;27.20;88.10;;;;;;5073359;28;19920;-68
2022/07/26 10:54:55;;;;;;;;;;;27.20;88.20;;;;;;5073343;28;20348;-68
2022/07/26 10:57:20;;;;;;;;;;;27.20;88.10;;;;;;5072742;28;19908;-69
2022/07/26 10:59:46;;;;;;;;;;;27.20;88.20;;;;;;5072898;28;19921;-68
2022/07/26 11:02:17;;;;;;;;;;;27.20;88.20;;;;;;5073196;28;20385;-69
2022/07/26 11:04:43;;;;;;;;;;;27.20;88.10;;;;;;5072805;28;19908;-69
2022/07/26 11:07:08;;;;;;;;;;;27.20;88.20;;;;;;5055069;28;19931;-69
2022/07/26 11:09:33;;;;;;;;;;;27.20;88.10;;;;;;5073103;28;19908;-69
2022/07/26 11:12:15;;;;;;;;;;;27.20;88.10;;;;;;5075451;28;19912;-68
2022/07/26 11:14:41;;;;;;;;;;;27.20;88.20;;;;;;5076034;28;19908;-69
2022/07/26 11:17:06;;;;;;;;;;;27.20;88.20;;;;;;5058346;28;20286;-69
2022/07/26 11:19:37;;;;;;;;;;;27.20;88.20;;;;;;5076072;28;19917;-68
2022/07/26 11:22:03;;;;;;;;;;;27.20;88.20;;;;;;5076801;28;19912;-68
2022/07/26 11:24:28;;;;;;;;;;;27.20;88.20;;;;;;5075933;28;19915;-68
2022/07/26 11:26:54;;;;;;;;;;;27.20;88.20;;;;;;5075909;28;19908;-68
2022/07/26 11:29:26;;;;;;;;;;;27.20;88.20;;;;;;5058092;28;19908;-69
2022/07/26 11:31:52;;;;;;;;;;;27.20;88.20;;;;;;5076707;28;19909;-68
2022/07/26 11:34:27;;;;;;;;;;;27.20;88.20;;;;;;5058316;28;19958;-68
2022/07/26 11:36:54;;;;;;;;;;;27.20;88.10;;;;;;5076129;28;20007;-68
2022/07/26 11:39:21;;;;;;;;;;;27.20;88.10;;;;;;5057939;28;20354;-68
2022/07/26 11:41:47;;;;;;;;;;;27.20;88.20;;;;;;5076073;28;19935;-68
2022/07/26 11:44:16;;;;;;;;;;;27.20;88.20;;;;;;5076534;28;20335;-69
2022/07/26 11:46:48;;;;;;;;;;;27.20;88.20;;;;;;5076440;28;19954;-68
2022/07/26 11:49:15;;;;;;;;;;;27.20;88.10;;;;;;5076349;28;19908;-68
2022/07/26 11:52:01;;;;;;;;;;;27.20;88.20;;;;;;5057919;28;19931;-69
2022/07/26 11:54:31;;;;;;;;;;;27.20;88.20;;;;;;5075674;28;19931;-68
2022/07/26 11:56:57;;;;;;;;;;;27.20;88.20;;;;;;5057821;28;19909;-68
2022/07/26 11:59:24;;;;;;;;;;;27.20;88.20;;;;;;5075682;28;20414;-69
2022/07/26 12:01:50;;;;;;;;;;;27.20;88.20;;;;;;5075492;28;19916;-69
2022/07/26 12:04:22;;;;;;;;;;;27.20;88.20;;;;;;5057684;28;20003;-68
2022/07/26 12:06:48;;;;;;;;;;;27.20;88.20;;;;;;5075912;28;19950;-68
2022/07/26 12:09:36;;;;;;;;;;;27.20;88.20;;;;;;5075212;28;20041;-69
2022/07/26 12:12:03;;;;;;;;;;;27.20;88.20;;;;;;5075516;28;19908;-69
2022/07/26 12:14:29;;;;;;;;;;;27.20;88.20;;;;;;5075845;28;20360;-68
2022/07/26 12:16:55;;;;;;;;;;;27.10;88.10;;;;;;5075179;28;19995;-69
2022/07/26 12:19:23;;;;;;;;;;;27.20;88.20;;;;;;5075337;28;20462;-69
2022/07/26 12:21:53;;;;;;;;;;;27.20;88.20;;;;;;5075233;28;19912;-69
2022/07/26 12:24:38;;;;;;;;;;;27.20;88.20;;;;;;5074992;28;20412;-69
2022/07/26 12:27:05;;;;;;;;;;;27.20;88.20;;;;;;5075108;28;19916;-69
2022/07/26 12:29:35;;;;;;;;;;;27.20;88.20;;;;;;5057263;28;19912;-67
2022/07/26 12:32:14;;;;;;;;;;;27.20;88.20;;;;;;5075098;28;20331;-67
2022/07/26 12:34:41;;;;;;;;;;;27.20;88.20;;;;;;5056976;28;19913;-69
2022/07/26 12:37:07;;;;;;;;;;;27.10;88.10;;;;;;5056851;28;19916;-69
2022/07/26 12:39:32;;;;;;;;;;;27.20;88.20;;;;;;5074552;28;20314;-69
2022/07/26 12:41:58;;;;;;;;;;;27.20;88.20;;;;;;5075136;28;20011;-68
2022/07/26 12:44:23;;;;;;;;;;;27.20;88.20;;;;;;5057006;28;19909;-69
2022/07/26 12:46:49;;;;;;;;;;;27.20;88.20;;;;;;5074865;28;19916;-69
2022/07/26 12:49:14;;;;;;;;;;;27.20;88.20;;;;;;5057033;28;19908;-69
2022/07/26 12:51:40;;;;;;;;;;;27.20;88.20;;;;;;5074582;28;19908;-69
2022/07/26 12:54:05;;;;;;;;;;;27.20;88.20;;;;;;5074532;28;19912;-68
2022/07/26 12:56:31;;;;;;;;;;;27.20;88.20;;;;;;5056087;28;19908;-68
2022/07/26 12:58:59;;;;;;;;;;;27.20;88.20;;;;;;5074343;28;20077;-68
2022/07/26 13:01:25;;;;;;;;;;;27.20;88.20;;;;;;5056495;28;19952;-68
2022/07/26 13:03:51;;;;;;;;;;;27.20;88.20;;;;;;5074392;28;19916;-68
2022/07/26 13:06:16;;;;;;;;;;;27.20;88.20;;;;;;5089849;28;19908;-69
2022/07/26 13:08:42;;;;;;;;;;;27.10;88.10;;;;;;5074475;28;19916;-68
2022/07/26 13:11:07;;;;;;;;;;;27.20;88.20;;;;;;5056496;28;20074;-68
2022/07/26 13:13:33;;;;;;;;;;;27.20;88.20;;;;;;5074267;28;20272;-69
2022/07/26 13:15:58;;;;;;;;;;;27.10;88.20;;;;;;5074209;28;19909;-68
2022/07/26 13:18:24;;;;;;;;;;;27.20;88.20;;;;;;5074199;28;19913;-69
2022/07/26 13:20:49;;;;;;;;;;;27.20;88.20;;;;;;5073808;28;19978;-69
2022/07/26 13:23:15;;;;;;;;;;;27.20;88.20;;;;;;5074266;28;19913;-69
2022/07/26 13:25:40;;;;;;;;;;;27.20;88.20;;;;;;5073556;28;19908;-68
2022/07/26 13:28:06;;;;;;;;;;;27.20;88.20;;;;;;5073851;28;19916;-68
2022/07/26 13:30:32;;;;;;;;;;;27.20;88.20;;;;;;5055871;28;19951;-68
2022/07/26 13:32:57;;;;;;;;;;;27.20;88.20;;;;;;5073148;28;19909;-68
2022/07/26 13:35:23;;;;;;;;;;;27.20;88.20;;;;;;5073898;28;20362;-69
2022/07/26 13:37:48;;;;;;;;;;;27.20;88.20;;;;;;5073180;28;20003;-68
2022/07/26 13:40:14;;;;;;;;;;;27.20;88.20;;;;;;5073422;28;20386;-68
2022/07/26 13:42:39;;;;;;;;;;;27.10;88.20;;;;;;5073868;28;19919;-67
2022/07/26 13:45:05;;;;;;;;;;;27.20;88.20;;;;;;5073325;28;20297;-68
2022/07/26 13:47:31;;;;;;;;;;;27.10;88.20;;;;;;5073618;28;20007;-68
2022/07/26 13:49:56;;;;;;;;;;;27.20;88.20;;;;;;5073725;28;19989;-68
2022/07/26 13:52:21;;;;;;;;;;;27.20;88.20;;;;;;5073655;28;19954;-68
2022/07/26 13:54:47;;;;;;;;;;;27.20;88.20;;;;;;5073432;28;20351;-68
2022/07/26 13:57:12;;;;;;;;;;;27.20;88.30;;;;;;5073736;28;19944;-68
2022/07/26 13:59:38;;;;;;;;;;;27.20;88.20;;;;;;5055342;28;19924;-68
2022/07/26 14:02:03;;;;;;;;;;;27.20;88.20;;;;;;5073695;28;20263;-68
2022/07/26 14:04:29;;;;;;;;;;;27.20;88.20;;;;;;5073677;28;19912;-67
2022/07/26 14:06:54;;;;;;;;;;;27.20;88.20;;;;;;5073576;28;20309;-67
2022/07/26 14:09:20;;;;;;;;;;;27.20;88.20;;;;;;5073382;28;19909;-68
2022/07/26 14:11:46;;;;;;;;;;;27.20;88.20;;;;;;5073561;28;19909;-68
2022/07/26 14:14:12;;;;;;;;;;;27.20;88.20;;;;;;5073524;28;19909;-67